createdAt,value
2023-03-14T00:00:59.298Z,96502.31
2023-03-14T00:03:25.810Z,96489.22
2023-03-14T00:05:52.346Z,96479.00
2023-03-14T00:08:18.978Z,96480.44
2023-03-14T00:10:45.452Z,96496.13
2023-03-14T00:13:11.843Z,96495.97
2023-03-14T00:15:38.314Z,96517.44
2023-03-14T00:18:04.809Z,96530.31
2023-03-14T00:20:31.264Z,96529.94
2023-03-14T00:22:57.709Z,96530.56
2023-03-14T00:25:24.150Z,96504.97
2023-03-14T00:27:53.697Z,96525.19
2023-03-14T00:30:20.669Z,96513.75
2023-03-14T00:32:47.165Z,96535.59
2023-03-14T00:35:13.674Z,96525.19
2023-03-14T00:37:40.154Z,96534.00
2023-03-14T00:40:08.353Z,96533.97
2023-03-14T00:42:35.356Z,96519.88
2023-03-14T00:45:01.816Z,96520.31
2023-03-14T00:47:28.245Z,96494.50
2023-03-14T00:49:54.700Z,96503.06
2023-03-14T00:52:21.402Z,96476.16
2023-03-14T00:54:47.803Z,96458.53
2023-03-14T00:57:14.302Z,96452.72
2023-03-14T00:59:40.736Z,96438.41
2023-03-14T01:02:07.168Z,96440.00
2023-03-14T01:04:33.791Z,96437.91
2023-03-14T01:07:00.255Z,96442.81
2023-03-14T01:09:26.683Z,96445.28
2023-03-14T01:11:53.346Z,96458.81
2023-03-14T01:14:19.783Z,96450.88
2023-03-14T01:16:46.196Z,96468.72
2023-03-14T01:19:12.614Z,96466.66
2023-03-14T01:21:39.055Z,96473.84
2023-03-14T01:24:07.020Z,96468.22
2023-03-14T01:26:35.768Z,96468.22
2023-03-14T01:29:02.816Z,96456.41
2023-03-14T01:31:29.422Z,96445.94
2023-03-14T01:33:55.948Z,96455.59
2023-03-14T01:36:22.503Z,96450.31
2023-03-14T01:38:49.064Z,96452.34
2023-03-14T01:41:22.588Z,96452.78
2023-03-14T01:43:49.693Z,96444.22
2023-03-14T01:46:26.532Z,96429.28
2023-03-14T01:49:08.275Z,96415.00
2023-03-14T01:51:41.769Z,96422.13
2023-03-14T01:54:37.851Z,96412.34
2023-03-14T01:57:16.722Z,96409.41
2023-03-14T01:59:49.915Z,96414.09
2023-03-14T02:02:16.649Z,96409.16
2023-03-14T02:04:43.923Z,96396.25
2023-03-14T02:07:18.713Z,96395.47
2023-03-14T02:09:45.502Z,96395.03
2023-03-14T02:12:15.163Z,96394.44
2023-03-14T02:14:43.310Z,96425.50
2023-03-14T02:17:09.733Z,96396.88
2023-03-14T02:20:01.221Z,96399.94
2023-03-14T02:22:27.788Z,96401.16
2023-03-14T02:25:06.613Z,96404.44
2023-03-14T02:27:34.577Z,96421.63
2023-03-14T02:30:05.233Z,96406.94
2023-03-14T02:32:34.763Z,96407.38
2023-03-14T02:35:07.601Z,96381.31
2023-03-14T02:37:40.283Z,96385.41
2023-03-14T02:40:07.678Z,96374.19
2023-03-14T02:42:34.139Z,96386.75
2023-03-14T02:45:35.136Z,96388.28
2023-03-14T02:48:08.433Z,96371.69
2023-03-14T02:50:35.068Z,96388.44
2023-03-14T02:53:01.503Z,96386.16
2023-03-14T02:55:27.947Z,96385.94
2023-03-14T02:57:54.430Z,96362.28
2023-03-14T03:00:21.282Z,96374.78
2023-03-14T03:02:47.792Z,96384.00
2023-03-14T03:05:14.304Z,96362.53
2023-03-14T03:07:41.027Z,96363.34
2023-03-14T03:10:07.987Z,96371.50
2023-03-14T03:12:34.417Z,96379.31
2023-03-14T03:15:00.924Z,96366.47
2023-03-14T03:17:27.307Z,96358.50
2023-03-14T03:19:53.780Z,96378.50
2023-03-14T03:22:20.239Z,96372.19
2023-03-14T03:24:46.653Z,96360.75
2023-03-14T03:27:13.323Z,96362.00
2023-03-14T03:29:39.736Z,96360.78
2023-03-14T03:32:06.195Z,96352.44
2023-03-14T03:34:32.692Z,96350.75
2023-03-14T03:36:59.237Z,96342.78
2023-03-14T03:39:25.679Z,96350.34
2023-03-14T03:41:52.132Z,96337.06
2023-03-14T03:44:18.694Z,96338.47
2023-03-14T03:46:45.149Z,96338.09
2023-03-14T03:49:11.570Z,96346.22
2023-03-14T03:51:38.016Z,96349.88
2023-03-14T03:54:04.470Z,96340.53
2023-03-14T03:56:32.514Z,96330.72
2023-03-14T03:58:58.960Z,96336.47
2023-03-14T04:01:25.392Z,96327.69
2023-03-14T04:03:51.908Z,96327.06
2023-03-14T04:06:18.654Z,96325.06
2023-03-14T04:08:45.187Z,96319.94
2023-03-14T04:11:12.080Z,96314.44
2023-03-14T04:13:38.558Z,96311.78
2023-03-14T04:16:10.748Z,96285.56
2023-03-14T04:18:37.336Z,96300.31
2023-03-14T04:21:03.884Z,96297.63
2023-03-14T04:23:30.809Z,96305.94
2023-03-14T04:25:57.268Z,96295.13
2023-03-14T04:28:23.714Z,96308.06
2023-03-14T04:30:50.170Z,96303.31
2023-03-14T04:33:18.316Z,96300.63
2023-03-14T04:35:46.122Z,96299.03
2023-03-14T04:38:13.577Z,96319.03
2023-03-14T04:40:43.420Z,96297.22
2023-03-14T04:43:11.657Z,96294.34
2023-03-14T04:45:42.096Z,96291.72
2023-03-14T04:48:08.698Z,96290.69
2023-03-14T04:50:35.069Z,96292.31
2023-03-14T04:53:02.454Z,96285.56
2023-03-14T04:55:28.902Z,96278.81
2023-03-14T04:57:55.347Z,96297.63
2023-03-14T05:00:21.827Z,96282.31
2023-03-14T05:02:48.345Z,96297.00
2023-03-14T05:05:14.838Z,96275.34
2023-03-14T05:07:41.302Z,96285.78
2023-03-14T05:10:08.100Z,96283.94
2023-03-14T05:12:34.522Z,96297.09
2023-03-14T05:15:00.934Z,96286.38
2023-03-14T05:17:27.393Z,96287.84
2023-03-14T05:19:53.852Z,96285.56
2023-03-14T05:22:20.214Z,96292.75
2023-03-14T05:24:46.660Z,96277.81
2023-03-14T05:27:13.111Z,96289.28
2023-03-14T05:29:39.545Z,96274.78
2023-03-14T05:32:06.049Z,96266.56
2023-03-14T05:34:32.608Z,96265.31
2023-03-14T05:36:59.103Z,96257.75
2023-03-14T05:39:25.720Z,96260.00
2023-03-14T05:41:52.247Z,96254.88
2023-03-14T05:44:18.749Z,96255.03
2023-03-14T05:46:45.202Z,96255.84
2023-03-14T05:49:11.696Z,96251.34
2023-03-14T05:51:38.186Z,96232.53
2023-03-14T05:54:04.673Z,96218.44
2023-03-14T05:56:31.074Z,96225.19
2023-03-14T05:58:57.561Z,96232.34
2023-03-14T06:01:23.936Z,96221.91
2023-03-14T06:03:50.384Z,96225.69
2023-03-14T06:06:17.727Z,96215.78
2023-03-14T06:08:44.299Z,96216.00
2023-03-14T06:11:10.826Z,96217.66
2023-03-14T06:13:37.376Z,96227.09
2023-03-14T06:16:04.016Z,96213.41
2023-03-14T06:18:30.558Z,96208.69
2023-03-14T06:20:57.469Z,96212.75
2023-03-14T06:23:24.339Z,96217.34
2023-03-14T06:25:50.730Z,96220.28
2023-03-14T06:28:17.205Z,96224.13
2023-03-14T06:30:43.767Z,96228.16
2023-03-14T06:33:10.473Z,96237.97
2023-03-14T06:35:37.372Z,96225.38
2023-03-14T06:38:03.927Z,96224.53
2023-03-14T06:40:31.177Z,96214.38
2023-03-14T06:42:57.682Z,96214.03
2023-03-14T06:45:24.555Z,96205.66
2023-03-14T06:47:50.993Z,96217.16
2023-03-14T06:50:17.613Z,96205.72
2023-03-14T06:52:48.742Z,96223.13
2023-03-14T06:55:16.364Z,96232.31
2023-03-14T06:57:43.012Z,96218.84
2023-03-14T07:00:09.984Z,96223.13
2023-03-14T07:02:42.960Z,96238.66
2023-03-14T07:05:11.267Z,96225.63
2023-03-14T07:07:37.846Z,96235.03
2023-03-14T07:10:05.114Z,96234.44
2023-03-14T07:12:31.512Z,96238.56
2023-03-14T07:15:05.705Z,96235.50
2023-03-14T07:17:38.643Z,96226.34
2023-03-14T07:20:07.429Z,96235.53
2023-03-14T07:22:35.012Z,96241.28
2023-03-14T07:25:01.486Z,96230.28
2023-03-14T07:27:27.883Z,96241.09
2023-03-14T07:29:54.478Z,96238.69
2023-03-14T07:32:21.017Z,96237.09
2023-03-14T07:34:47.499Z,96232.59
2023-03-14T07:37:14.105Z,96235.44
2023-03-14T07:39:40.498Z,96228.06
2023-03-14T07:42:06.918Z,96236.88
2023-03-14T07:44:33.980Z,96236.09
2023-03-14T07:47:00.509Z,96246.38
2023-03-14T07:49:26.970Z,96227.09
2023-03-14T07:51:53.460Z,96242.41
2023-03-14T07:54:21.178Z,96240.19
2023-03-14T07:56:47.690Z,96239.75
2023-03-14T07:59:14.148Z,96246.09
2023-03-14T08:01:40.649Z,96240.34
2023-03-14T08:04:07.173Z,96238.75
2023-03-14T08:06:33.666Z,96233.03
2023-03-14T08:09:00.104Z,96235.94
2023-03-14T08:11:26.612Z,96241.25
2023-03-14T08:13:53.252Z,96231.81
2023-03-14T08:16:19.767Z,96236.56
2023-03-14T08:18:46.932Z,96240.69
2023-03-14T08:21:13.722Z,96237.81
2023-03-14T08:23:40.178Z,96228.19
2023-03-14T08:26:07.783Z,96226.94
2023-03-14T08:28:34.393Z,96238.41
2023-03-14T08:31:02.125Z,96234.94
2023-03-14T08:33:30.075Z,96234.53
2023-03-14T08:35:58.258Z,96233.28
2023-03-14T08:38:24.949Z,96235.94
2023-03-14T08:40:56.885Z,96256.63
2023-03-14T08:43:23.381Z,96230.22
2023-03-14T08:45:49.817Z,96237.59
2023-03-14T08:48:16.266Z,96240.88
2023-03-14T08:50:42.705Z,96240.28
2023-03-14T08:53:09.838Z,96236.78
2023-03-14T08:55:36.667Z,96247.00
2023-03-14T08:58:03.381Z,96239.81
2023-03-14T09:00:29.891Z,96237.53
2023-03-14T09:02:56.375Z,96242.81
2023-03-14T09:05:22.832Z,96249.47
2023-03-14T09:07:49.272Z,96249.63
2023-03-14T09:10:15.719Z,96256.13
2023-03-14T09:12:42.160Z,96250.97
2023-03-14T09:15:09.195Z,96260.13
2023-03-14T09:17:35.628Z,96256.00
2023-03-14T09:20:07.717Z,96267.13
2023-03-14T09:22:36.268Z,96266.50
2023-03-14T09:25:04.646Z,96274.91
2023-03-14T09:27:31.094Z,96275.50
2023-03-14T09:29:57.567Z,96285.94
2023-03-14T09:32:24.073Z,96276.91
2023-03-14T09:34:50.526Z,96282.00
2023-03-14T09:37:17.316Z,96275.66
2023-03-14T09:39:44.172Z,96273.66
2023-03-14T09:42:16.343Z,96281.63
2023-03-14T09:44:58.209Z,96286.09
2023-03-14T09:47:26.031Z,96274.84
2023-03-14T09:49:53.195Z,96266.88
2023-03-14T09:52:29.054Z,96273.66
2023-03-14T09:55:05.095Z,96272.63
2023-03-14T09:57:34.762Z,96276.91
2023-03-14T10:00:23.729Z,96284.69
2023-03-14T10:03:00.618Z,96282.84
2023-03-14T10:05:30.598Z,96260.13
2023-03-14T10:07:57.169Z,96270.56
2023-03-14T10:10:26.312Z,96265.44
2023-03-14T10:13:11.109Z,96271.59
2023-03-14T10:15:39.016Z,96271.56
2023-03-14T10:18:13.803Z,96274.03
2023-03-14T10:20:43.638Z,96271.16
2023-03-14T10:23:13.023Z,96279.09
2023-03-14T10:25:45.101Z,96275.41
2023-03-14T10:28:28.623Z,96274.41
2023-03-14T10:30:56.123Z,96275.63
2023-03-14T10:33:31.588Z,96275.84
2023-03-14T10:36:01.444Z,96270.91
2023-03-14T10:38:34.404Z,96280.38
2023-03-14T10:41:01.068Z,96274.16
2023-03-14T10:43:36.777Z,96279.94
2023-03-14T10:46:21.181Z,96277.88
2023-03-14T10:48:49.592Z,96284.66
2023-03-14T10:51:25.239Z,96287.94
2023-03-14T10:54:14.919Z,96279.34
2023-03-14T10:56:41.403Z,96273.41
2023-03-14T10:59:14.507Z,96284.44
2023-03-14T11:02:22.659Z,96276.91
2023-03-14T11:05:11.651Z,96279.91
2023-03-14T11:07:45.851Z,96273.56
2023-03-14T11:10:27.318Z,96275.84
2023-03-14T11:13:17.851Z,96277.69
2023-03-14T11:15:50.737Z,96278.09
2023-03-14T11:18:29.206Z,96273.00
2023-03-14T11:21:03.922Z,96285.25
2023-03-14T11:23:49.301Z,96283.41
2023-03-14T11:26:21.908Z,96277.44
2023-03-14T11:28:51.186Z,96272.75
2023-03-14T11:31:26.817Z,96274.81
2023-03-14T11:34:16.467Z,96280.16
2023-03-14T11:36:52.784Z,96274.22
2023-03-14T11:39:21.292Z,96275.84
2023-03-14T11:41:52.045Z,96278.16
2023-03-14T11:44:26.192Z,96270.34
2023-03-14T11:47:07.663Z,96292.63
2023-03-14T11:49:37.029Z,96399.66
2023-03-14T11:52:14.200Z,96419.53
2023-03-14T11:54:52.966Z,96433.97
2023-03-14T11:57:23.835Z,96445.28
2023-03-14T12:00:05.678Z,96460.84
2023-03-14T12:02:44.375Z,96469.66
2023-03-14T12:05:28.948Z,96486.00
2023-03-14T12:08:10.606Z,96497.00
2023-03-14T12:10:45.663Z,96502.19
2023-03-14T12:13:15.646Z,96510.53
2023-03-14T12:15:51.262Z,96514.91
2023-03-14T12:18:34.554Z,96509.88
2023-03-14T12:21:06.832Z,96511.44
2023-03-14T12:23:54.220Z,96519.13
2023-03-14T12:26:23.576Z,96521.56
2023-03-14T12:29:16.984Z,96531.19
2023-03-14T12:31:46.449Z,96526.72
2023-03-14T12:34:13.054Z,96531.94
2023-03-14T12:36:52.456Z,96533.91
2023-03-14T12:39:26.707Z,96533.00
2023-03-14T12:42:03.090Z,96533.78
2023-03-14T12:44:29.467Z,96523.34
2023-03-14T12:47:15.622Z,96545.28
2023-03-14T12:49:42.165Z,96530.97
2023-03-14T12:52:17.305Z,96549.94
2023-03-14T12:55:21.060Z,96562.16
2023-03-14T12:58:08.883Z,96564.56
2023-03-14T13:00:40.028Z,96578.59
2023-03-14T13:03:37.197Z,96588.06
2023-03-14T13:06:05.422Z,96608.38
2023-03-14T13:08:38.898Z,96614.22
2023-03-14T13:11:11.306Z,96612.53
2023-03-14T13:13:46.631Z,96620.06
2023-03-14T13:16:25.197Z,96629.88
2023-03-14T13:19:01.964Z,96644.31
2023-03-14T13:21:35.128Z,96647.59
2023-03-14T13:24:03.070Z,96643.22
2023-03-14T13:26:38.302Z,96651.28
2023-03-14T13:29:23.232Z,96656.22
2023-03-14T13:31:52.249Z,96667.69
2023-03-14T13:34:19.206Z,96680.88
2023-03-14T13:36:46.002Z,96687.94
2023-03-14T13:39:20.798Z,96693.75
2023-03-14T13:41:47.850Z,96704.97
2023-03-14T13:44:28.592Z,96721.94
2023-03-14T13:46:59.791Z,96728.22
2023-03-14T13:49:27.830Z,96743.63
2023-03-14T13:51:54.332Z,96768.97
2023-03-14T13:54:22.661Z,96798.59
2023-03-14T13:56:49.979Z,96804.75
2023-03-14T13:59:27.857Z,96829.09
2023-03-14T14:01:55.511Z,96843.44
2023-03-14T14:04:26.149Z,96827.09
2023-03-14T14:06:59.064Z,96833.50
2023-03-14T14:09:29.826Z,96862.16
2023-03-14T14:12:15.832Z,96875.72
2023-03-14T14:14:58.196Z,96875.22
2023-03-14T14:17:33.634Z,96904.34
2023-03-14T14:20:04.416Z,96905.84
2023-03-14T14:22:31.262Z,96918.50
2023-03-14T14:24:57.867Z,96930.88
2023-03-14T14:27:32.344Z,96944.78
2023-03-14T14:30:02.248Z,96942.31
2023-03-14T14:32:39.511Z,96961.25
2023-03-14T14:35:07.349Z,96959.50
2023-03-14T14:37:41.472Z,96960.66
2023-03-14T14:40:19.284Z,96968.56
2023-03-14T14:42:46.501Z,96964.72
2023-03-14T14:45:17.975Z,96979.00
2023-03-14T14:48:19.398Z,96979.09
2023-03-14T14:50:50.414Z,96981.59
2023-03-14T14:53:31.348Z,96992.44
2023-03-14T14:56:07.769Z,96999.03
2023-03-14T14:58:41.940Z,97009.03
2023-03-14T15:01:16.933Z,97007.63
2023-03-14T15:03:46.911Z,97028.59
2023-03-14T15:06:15.333Z,97023.94
2023-03-14T15:08:44.105Z,97032.16
2023-03-14T15:11:18.480Z,97028.59
2023-03-14T15:13:45.092Z,97035.63
2023-03-14T15:16:13.143Z,97049.22
2023-03-14T15:18:39.704Z,97058.31
2023-03-14T15:21:06.393Z,97069.59
2023-03-14T15:23:33.071Z,97094.56
2023-03-14T15:25:59.534Z,97112.63
2023-03-14T15:28:30.461Z,97124.22
2023-03-14T15:30:59.345Z,97139.59
2023-03-14T15:33:27.287Z,97140.13
2023-03-14T15:35:54.835Z,97148.63
2023-03-14T15:38:23.971Z,97156.19
2023-03-14T15:40:51.918Z,97170.59
2023-03-14T15:43:19.300Z,97177.72
2023-03-14T15:45:46.018Z,97175.13
2023-03-14T15:48:22.108Z,97181.88
2023-03-14T15:50:48.667Z,97188.06
2023-03-14T15:53:15.532Z,97172.28
2023-03-14T15:55:42.013Z,97178.94
2023-03-14T15:58:19.933Z,97184.22
2023-03-14T16:00:47.874Z,97180.44
2023-03-14T16:03:14.505Z,97177.28
2023-03-14T16:05:41.159Z,97190.88
2023-03-14T16:08:08.066Z,97194.84
2023-03-14T16:10:34.601Z,97198.78
2023-03-14T16:13:01.270Z,97211.47
2023-03-14T16:15:27.766Z,97212.59
2023-03-14T16:17:55.208Z,97217.75
2023-03-14T16:20:22.162Z,97222.41
2023-03-14T16:22:48.952Z,97223.53
2023-03-14T16:25:16.182Z,97225.13
2023-03-14T16:27:45.626Z,97240.38
2023-03-14T16:30:14.060Z,97245.50
2023-03-14T16:32:40.642Z,97246.81
2023-03-14T16:35:07.546Z,97256.00
2023-03-14T16:37:34.090Z,97267.41
2023-03-14T16:43:11.573Z,97275.84
2023-03-14T16:45:36.683Z,97288.97
2023-03-14T16:48:03.236Z,97289.59
2023-03-14T16:50:30.170Z,97273.03
2023-03-14T16:52:56.787Z,97317.84
2023-03-14T16:55:23.490Z,97323.75
2023-03-14T16:57:50.327Z,97326.16
2023-03-14T17:00:17.143Z,97329.94
2023-03-14T17:02:43.646Z,97325.06
2023-03-14T17:05:10.054Z,97338.59
2023-03-14T17:07:36.496Z,97344.66
2023-03-14T17:10:03.081Z,97348.53
2023-03-14T17:12:29.528Z,97355.03
2023-03-14T17:14:57.803Z,97347.38
2023-03-14T17:17:24.241Z,97368.06
2023-03-14T17:19:50.651Z,97365.75
2023-03-14T17:22:27.624Z,97372.72
2023-03-14T17:24:56.502Z,97382.88
2023-03-14T17:27:23.214Z,97391.41
2023-03-14T17:29:49.770Z,97389.50
2023-03-14T17:32:17.151Z,97396.28
2023-03-14T17:34:43.835Z,97397.53
2023-03-14T17:37:10.424Z,97395.38
2023-03-14T17:39:38.111Z,97407.44
2023-03-14T17:42:05.523Z,97402.91
2023-03-14T17:44:32.286Z,97425.25
2023-03-14T17:46:59.914Z,97422.34
2023-03-14T17:49:26.895Z,97433.47
2023-03-14T17:51:53.681Z,97440.56
2023-03-14T17:54:20.226Z,97452.53
2023-03-14T17:56:48.755Z,97453.63
2023-03-14T17:59:15.513Z,97462.94
2023-03-14T18:01:42.292Z,97479.47
2023-03-14T18:04:09.147Z,97476.72
2023-03-14T18:06:36.040Z,97487.81
2023-03-14T18:09:05.758Z,97502.38
2023-03-14T18:11:32.985Z,97498.91
2023-03-14T18:14:01.764Z,97519.34
2023-03-14T18:16:28.738Z,97520.97
2023-03-14T18:18:57.590Z,97525.38
2023-03-14T18:21:24.147Z,97534.03
2023-03-14T18:23:50.871Z,97538.63
2023-03-14T18:26:18.201Z,97542.81
2023-03-14T18:28:45.477Z,97550.31
2023-03-14T18:31:14.842Z,97559.06
2023-03-14T18:33:42.509Z,97564.50
2023-03-14T18:36:10.762Z,97581.53
2023-03-14T18:38:43.211Z,97574.59
2023-03-14T18:41:12.698Z,97573.75
2023-03-14T18:43:39.306Z,97577.81
2023-03-14T18:46:05.884Z,97588.94
2023-03-14T18:48:32.530Z,97592.06
2023-03-14T18:50:59.724Z,97597.06
2023-03-14T18:53:32.006Z,97606.66
2023-03-14T18:56:00.428Z,97611.59
2023-03-14T18:58:29.768Z,97610.59
2023-03-14T19:01:02.037Z,97615.50
2023-03-14T19:03:30.206Z,97626.97
2023-03-14T19:05:58.218Z,97626.56
2023-03-14T19:08:26.168Z,97638.41
2023-03-14T19:10:55.441Z,97631.03
2023-03-14T19:13:22.980Z,97640.00
2023-03-14T19:15:50.784Z,97644.97
2023-03-14T19:18:17.574Z,97645.66
2023-03-14T19:20:47.515Z,97646.78
2023-03-14T19:23:14.128Z,97645.88
2023-03-14T19:25:43.599Z,97646.78
2023-03-14T19:28:10.821Z,97660.56
2023-03-14T19:30:37.255Z,97661.78
2023-03-14T19:33:03.992Z,97663.88
2023-03-14T19:35:30.645Z,97673.81
2023-03-14T19:37:57.072Z,97672.34
2023-03-14T19:40:23.598Z,97681.72
2023-03-14T19:42:50.065Z,97688.88
2023-03-14T19:45:16.680Z,97691.13
2023-03-14T19:47:43.133Z,97689.41
2023-03-14T19:50:10.474Z,97693.59
2023-03-14T19:52:38.987Z,97690.06
2023-03-14T19:55:05.976Z,97698.59
2023-03-14T19:57:32.537Z,97707.41
2023-03-14T19:59:59.431Z,97712.69
2023-03-14T20:02:28.456Z,97718.38
2023-03-14T20:04:55.091Z,97722.34
2023-03-14T20:07:22.139Z,97722.63
2023-03-14T20:09:48.689Z,97740.66
2023-03-14T20:12:15.210Z,97734.84
2023-03-14T20:14:41.754Z,97747.25
2023-03-14T20:17:08.391Z,97746.09
2023-03-14T20:19:35.016Z,97754.00
2023-03-14T20:22:03.558Z,97761.69
2023-03-14T20:24:32.457Z,97768.16
2023-03-14T20:27:01.977Z,97771.19
2023-03-14T20:29:28.501Z,97775.06
2023-03-14T20:31:54.981Z,97776.97
2023-03-14T20:34:21.471Z,97785.59
2023-03-14T20:36:47.946Z,97786.81
2023-03-14T20:39:15.367Z,97778.84
2023-03-14T20:41:42.285Z,97792.56
2023-03-14T20:44:11.425Z,97807.78
2023-03-14T20:46:38.479Z,97819.50
2023-03-14T20:49:05.179Z,97815.63
2023-03-14T20:51:31.932Z,97812.03
2023-03-14T20:53:58.403Z,97816.22
2023-03-14T20:56:24.938Z,97830.94
2023-03-14T20:58:51.439Z,97837.88
2023-03-14T21:01:18.073Z,97840.25
2023-03-14T21:03:44.746Z,97855.84
2023-03-14T21:06:12.650Z,97853.44
2023-03-14T21:08:39.602Z,97858.72
2023-03-14T21:11:06.343Z,97860.00
2023-03-14T21:13:33.730Z,97862.69
2023-03-14T21:16:01.684Z,97867.72
2023-03-14T21:18:28.332Z,97877.63
2023-03-14T21:20:56.677Z,97877.50
2023-03-14T21:23:26.567Z,97881.28
2023-03-14T21:25:54.342Z,97886.53
2023-03-14T21:28:20.819Z,97886.22
2023-03-14T21:30:47.411Z,97889.84
2023-03-14T21:33:15.421Z,97882.03
2023-03-14T21:35:42.310Z,97888.22
2023-03-14T21:38:09.008Z,97888.56
2023-03-14T21:40:37.429Z,97899.88
2023-03-14T21:43:05.075Z,97903.38
2023-03-14T21:45:31.579Z,97911.56
2023-03-14T21:47:58.818Z,97910.75
2023-03-14T21:50:26.544Z,97911.78
2023-03-14T21:52:56.531Z,97915.75
2023-03-14T21:55:25.427Z,97917.28
2023-03-14T21:57:53.971Z,97929.38
2023-03-14T22:00:21.582Z,97920.31
2023-03-14T22:03:10.899Z,97926.56
2023-03-14T22:05:36.230Z,97935.44
2023-03-14T22:08:02.706Z,97933.84
2023-03-14T22:10:29.155Z,97941.28
2023-03-14T22:12:57.715Z,97936.97
2023-03-14T22:15:24.250Z,97937.47
2023-03-14T22:17:50.890Z,97951.59
2023-03-14T22:20:17.474Z,97951.97
2023-03-14T22:22:44.054Z,97961.31
2023-03-14T22:25:10.562Z,97963.38
2023-03-14T22:27:37.157Z,97962.28
2023-03-14T22:30:04.208Z,97966.38
2023-03-14T22:32:30.703Z,97970.66
2023-03-14T22:34:57.444Z,97970.44
2023-03-14T22:37:25.421Z,97983.00
2023-03-14T22:39:52.067Z,97987.78
2023-03-14T22:42:18.510Z,97997.34
2023-03-14T22:44:45.546Z,98009.94
2023-03-14T22:47:12.119Z,98009.94
2023-03-14T22:49:38.665Z,98003.34
2023-03-14T22:52:05.422Z,98007.63
2023-03-14T22:54:31.846Z,98009.56
2023-03-14T22:56:58.370Z,98021.75
2023-03-14T22:59:24.888Z,98029.25
2023-03-14T23:01:51.416Z,98031.78
2023-03-14T23:04:17.868Z,98038.47
2023-03-14T23:06:44.648Z,98045.06
2023-03-14T23:09:11.957Z,98043.59
2023-03-14T23:11:39.728Z,98041.81
2023-03-14T23:14:06.623Z,98049.56
2023-03-14T23:16:39.990Z,98047.06
2023-03-14T23:19:06.931Z,98047.88
2023-03-14T23:21:33.428Z,98048.94
2023-03-14T23:23:59.841Z,98043.91
2023-03-14T23:26:26.855Z,98055.03
2023-03-14T23:28:57.202Z,98053.44
2023-03-14T23:31:23.642Z,98054.47
2023-03-14T23:33:50.533Z,98060.19
2023-03-14T23:36:22.340Z,98070.03
2023-03-14T23:38:48.913Z,98069.44
2023-03-14T23:41:15.565Z,98062.94
2023-03-14T23:43:44.072Z,98067.38
2023-03-14T23:46:11.140Z,98069.78
2023-03-14T23:48:38.229Z,98065.63
2023-03-14T23:51:06.844Z,98067.59
2023-03-14T23:53:33.708Z,98070.38
2023-03-14T23:56:01.300Z,98076.78
2023-03-14T23:58:28.033Z,98084.69
